Terminal Aerodrome Forecast
Issued by NWS Pittsburgh, PA

Current Version | Previous Version | Graphics & Text | Print | Product List | Glossary On
Versions: 1 2 3 4 5 6 7 8 9 10 11 12 13 14 15 16 17 18 19 20 21 22 23 24 25 26 27 28 29 30 31
274
FTUS41 KPBZ 300259 AAA
TAFPIT
TAF AMD
KPIT 300259Z 3003/3106 04005KT P6SM BKN250
     FM300900 09007KT P6SM BKN100
     FM301600 10010G18KT P6SM VCSH OVC040
     FM302100 12010G18KT P6SM BKN120
     FM310000 13007KT P6SM BKN200=

USA.gov is the U.S. government's official web portal to all federal, state and local government web resources and services.